Flight Track Log - Related Links

Times and Time Zones

All times are in EDT time to prevent confusion due to time zone crossing. See the GJS3710 flight status page for this flight to view local times or setup timezone preferences in your user account.

Time Position Orientation Groundspeed Altitude Reporting Facility
EDT Latitude Longitude Course Direction KTS MPH feet Rate Location/Type
Mon 08:08:50 PM 41.9667 -87.8333 86° East 196 226 2,600  Level Chicago TRACON
Mon 08:09:29 PM 41.9611 -87.7817 98° East 203 234 4,200 1,412 Climbing Chicago Center
Mon 08:10:32 PM 41.9606 -87.6828 90° East 232 267 5,000 1,248 Climbing Chicago Center
Mon 08:11:34 PM 42.0025 -87.5964 57° Northeast 268 308 6,800 2,081 Climbing Chicago Center
Mon 08:12:36 PM 42.0472 -87.5100 55° Northeast 277 319 9,300 2,419 Climbing Chicago Center
Mon 08:13:00 PM 42.2546 -87.0863 66° East  Level FlightAware Approximate
Mon 08:13:38 PM 42.0933 -87.4236 54° Northeast 284 327 11,800  Level Chicago Center
Mon 08:14:00 PM 42.2696 -86.9392 86° East  Level FlightAware Approximate
Mon 08:14:40 PM 42.1519 -87.3100 55° Northeast 303 349 13,900  Level Chicago Center
Mon 08:15:42 PM 42.2078 -87.2039 55° Northeast 335 386 15,100 1,161 Climbing Chicago Center
Mon 08:16:44 PM 42.2661 -87.0856 56° Northeast 371 427 16,300 1,210 Climbing Chicago Center
Mon 08:17:46 PM 42.2839 -86.9342 81° East 403 464 17,600 1,355 Climbing Chicago Center
Mon 08:18:48 PM 42.2894 -86.7742 87° East 423 487 19,100 1,355 Climbing Chicago Center
Mon 08:19:50 PM 42.2967 -86.6039 87° East 431 496 20,400 1,210 Climbing Chicago Center
Mon 08:20:52 PM 42.3036 -86.4111 87° East 447 514 21,600 1,016 Climbing Chicago Center
Mon 08:21:54 PM 42.3100 -86.2406 87° East 458 527 22,500 968 Climbing Chicago Center
Mon 08:22:56 PM 42.3156 -86.0661 87° East 466 536 23,600 1,016 Climbing Chicago Center
Mon 08:23:58 PM 42.3131 -85.8881 91° East 475 547 24,600 968 Climbing Chicago Center
Mon 08:25:00 PM 42.3100 -85.7103 91° East 478 550 25,600 1,065 Climbing Chicago Center
Mon 08:26:02 PM 42.3081 -85.4925 91° East 485 558 26,800 1,065 Climbing Chicago Center
Mon 08:27:04 PM 42.3044 -85.3128 91° East 484 557 27,800 968 Climbing Chicago Center
Mon 08:28:06 PM 42.3022 -85.1311 91° East 485 558 28,800 968 Climbing Chicago Center
Mon 08:29:08 PM 42.2983 -84.9522 92° East 480 552 29,800 968 Climbing Chicago Center
Mon 08:30:10 PM 42.2950 -84.7733 91° East 479 551 30,800 1,065 Climbing Chicago Center
Mon 08:31:12 PM 42.2894 -84.5619 92° East 472 543 32,000 1,056 Climbing Chicago Center
Mon 08:32:15 PM 42.2892 -84.3881 90° East 466 536 33,000 759 Climbing Chicago Center
Mon 08:32:31 PM 42.2864 -84.3361 94° East 468 539 33,000 553 Level Cleveland Center
Mon 08:33:31 PM 42.2878 -84.1592 89° East 463 533 33,700 850 Climbing Cleveland Center
Mon 08:34:31 PM 42.2908 -83.9881 89° East 458 527 34,700 950 Climbing Cleveland Center
Mon 08:35:31 PM 42.2981 -83.8172 87° East 458 527 35,600 750 Climbing Cleveland Center
Mon 08:36:31 PM 42.3108 -83.6494 84° East 458 527 36,200 600 Climbing Cleveland Center
Mon 08:37:31 PM 42.3258 -83.4731 83° East 458 527 36,800 600 Climbing Cleveland Center
Mon 08:38:31 PM 42.3383 -83.3053 84° East 452 520 37,400 550 Climbing Cleveland Center
Mon 08:39:31 PM 42.3525 -83.1456 83° East 459 528 37,900 550 Climbing Cleveland Center
Mon 08:40:31 PM 42.3664 -82.9803 83° East 459 528 38,500 500 Climbing Cleveland Center
Mon 08:41:31 PM 42.3781 -82.8150 84° East 447 514 38,900 250 Climbing Cleveland Center
Mon 08:42:31 PM 42.3917 -82.6467 84° East 442 509 39,000 50 Climbing Cleveland Center
Mon 08:43:31 PM 42.4050 -82.4783 84° East 442 509 39,000  Level Cleveland Center
Mon 08:44:31 PM 42.4181 -82.3044 84° East 447 514 39,000  Level Cleveland Center
Mon 08:45:31 PM 42.4308 -82.1389 84° East 447 514 39,000  Level Cleveland Center
Mon 08:46:31 PM 42.4478 -81.9675 82° East 454 522 39,000  Level Cleveland Center
Mon 08:47:31 PM 42.4603 -81.7819 85° East 454 522 39,000  Level Cleveland Center
Mon 08:48:31 PM 42.4700 -81.6247 85° East 460 529 39,000  Level Cleveland Center
Mon 08:49:31 PM 42.4839 -81.4558 84° East 454 522 39,000  Level Cleveland Center
Mon 08:50:31 PM 42.4956 -81.2786 85° East 465 535 39,000  Level Cleveland Center
Mon 08:51:31 PM 42.5069 -81.0931 85° East 460 529 39,000  Level Cleveland Center
Mon 08:52:31 PM 42.5161 -80.9183 86° East 460 529 39,000  Level Cleveland Center
Mon 08:53:31 PM 42.5289 -80.7439 84° East 460 529 39,000  Level Cleveland Center
Mon 08:54:31 PM 42.5394 -80.5719 85° East 460 529 39,000 -400 Level Cleveland Center
Mon 08:55:31 PM 42.5497 -80.4000 85° East 460 529 38,200 -900 Descending Cleveland Center
Mon 08:56:31 PM 42.5617 -80.2194 85° East 466 536 37,200 -595 Descending Cleveland Center
Mon 08:57:32 PM 42.5694 -80.0333 87° East 478 550 37,000 -100 Descending Cleveland Center
Mon 08:58:31 PM 42.5850 -79.8500 83° East 478 550 37,000  Level Cleveland Center
Mon 08:59:31 PM 42.5919 -79.6639 87° East 483 556 37,000  Level Cleveland Center
Mon 09:00:31 PM 42.6031 -79.4803 85° East 483 556 37,000  Level Cleveland Center
Mon 09:01:31 PM 42.6136 -79.2939 86° East 483 556 37,000 -150 Level Cleveland Center
Mon 09:02:31 PM 42.6197 -79.1075 87° East 488 562 36,700 -650 Descending Cleveland Center
Mon 09:03:31 PM 42.6297 -78.9211 86° East 493 567 35,700 -1,000 Descending Cleveland Center
Mon 09:04:31 PM 42.6372 -78.7347 87° East 493 567 34,700 -1,000 Descending Cleveland Center
Mon 09:05:31 PM 42.6444 -78.5481 87° East 498 573 33,700 -1,000 Descending Cleveland Center
Mon 09:06:31 PM 42.6536 -78.3614 86° East 498 573 32,700 -1,000 Descending Cleveland Center
Mon 09:07:31 PM 42.6603 -78.1775 87° East 498 573 31,700 -850 Descending Cleveland Center
Mon 09:08:31 PM 42.6667 -77.9911 87° East 498 573 31,000 -350 Descending Cleveland Center
Mon 09:09:31 PM 42.6750 -77.8072 86° East 493 567 31,000 -250 Level Cleveland Center
Mon 09:10:31 PM 42.6806 -77.6203 88° East 493 567 30,500 -650 Descending Cleveland Center
Mon 09:11:31 PM 42.6872 -77.4703 86° East 498 573 29,700 -552 Descending Cleveland Center
Mon 09:13:14 PM 42.6964 -77.1050 88° East 508 585 29,000 -479 Descending Boston Center
Mon 09:14:14 PM 42.7017 -76.9272 88° East 494 568 28,400 -500 Descending Boston Center
Mon 09:15:14 PM 42.7064 -76.7494 88° East 472 543 28,000 -300 Descending Boston Center
Mon 09:16:14 PM 42.7108 -76.5747 88° East 466 536 27,800 -850 Descending Boston Center
Mon 09:17:14 PM 42.7150 -76.3967 88° East 466 536 26,300 -1,600 Descending Boston Center
Mon 09:18:14 PM 42.7208 -76.2247 87° East 460 529 24,600 -1,150 Descending Boston Center
Mon 09:19:14 PM 42.7244 -76.0525 88° East 455 524 24,000 -273 Descending Boston Center
Mon 09:20:26 PM 42.7278 -75.8744 88° East 460 529 24,000  Level Boston Center
Mon 09:21:26 PM 42.7322 -75.6569 88° East 467 537 24,000 -150 Level Boston Center
Mon 09:22:26 PM 42.7350 -75.4761 89° East 473 544 23,700 -1,300 Descending Boston Center
Mon 09:23:26 PM 42.7206 -75.3114 97° East 467 537 21,400 -2,250 Descending Boston Center
Mon 09:24:26 PM 42.6869 -75.1547 106° East 443 510 19,200 -2,167 Descending Boston Center
Mon 09:25:14 PM 42.6606 -75.0378 107° East 443 510 17,500 -2,200 Descending Boston Center
Mon 09:26:26 PM 42.6228 -74.8556 106° East 418 481 14,800 -2,220 Descending Boston Center
Mon 09:27:21 PM 42.5942 -74.7217 106° East 398 458 12,800 -1,983 Descending Boston Center
Mon 09:28:21 PM 42.5656 -74.5825 106° East 383 441 11,000 -1,041 Descending Boston Center
Mon 09:29:22 PM 42.5761 -74.4617 83° East 320 368 10,700 -787 Descending Boston Center
Mon 09:30:23 PM 42.6278 -74.3731 52° Northeast 284 327 9,400 -1,339 Descending Boston Center
Mon 09:31:23 PM 42.6731 -74.2869 54° Northeast 281 323 8,000 -1,438 Descending Boston Center
Mon 09:32:24 PM 42.7222 -74.1981 53° Northeast 274 315 6,500 -1,377 Descending Boston Center
Mon 09:33:25 PM 42.7672 -74.1172 53° Northeast 268 308 5,200 -1,140 Descending Boston Center
Mon 09:34:25 PM 42.8103 -74.0392 53° Northeast 250 288 4,200 -895 Descending Boston Center
Mon 09:36:00 PM 42.7333 -73.8000 82° East  Level FlightAware Approximate
Mon 09:36:26 PM 42.8864 -73.9447 82° East 203 234 2,500  Level Boston Center
Mon 09:37:26 PM 42.9144 -73.8717 62° Northeast 185 213 2,000 -250 Descending Boston Center
Mon 09:38:26 PM 42.8839 -73.8200 129° Southeast 149 171 2,000  Level Boston Center

Login

Don't have an account? Register now (free) for customized features, flight alerts, and more!